Naugatuck River @ Beacon Falls, Ct

Naugatuck River at Beacon Falls
 Total Drainage Area: 259 sq. miles 
 Drainage Area Controlled by Corps Dams: 152 sq. miles (59%) 
 Warning Flow/Stage: 4,200 cfs / 7.0 feet 
 Flood Flow/Stage: 10,700 cfs / 10.7 feet 
Date Time
(Eastern)
Stage
(ft)
Flow
(cfs)
CSM
(cfs / sq. mi.)
Jan-31 03:00 pm 3.54 923 3.6
Jan-31 02:00 pm 3.55 929 3.6
Jan-31 01:00 pm 3.53 918 3.5
Jan-31 12:00 pm 3.52 912 3.5
Jan-31 11:00 am 3.51 906 3.5
Jan-31 10:00 am 3.53 918 3.5
Jan-31 09:00 am 3.52 912 3.5
Jan-31 08:00 am 3.52 912 3.5
Jan-31 07:00 am 3.52 912 3.5
Jan-31 06:00 am 3.53 918 3.5
Jan-31 05:00 am 3.53 918 3.5
Jan-31 04:00 am 3.54 923 3.6
Jan-31 03:00 am 3.56 935 3.6
Jan-31 02:00 am 3.56 935 3.6
Jan-31 01:00 am 3.59 953 3.7
Jan-31 12:00 am 3.59 953 3.7
Jan-30 11:00 pm 3.60 959 3.7
Jan-30 10:00 pm 3.60 959 3.7
Jan-30 09:00 pm 3.60 959 3.7
Jan-30 08:00 pm 3.61 965 3.7
Jan-30 07:00 pm 3.61 965 3.7
Jan-30 06:00 pm 3.62 971 3.8
Jan-30 05:00 pm 3.63 977 3.8
Jan-30 04:00 pm 3.64 983 3.8
Jan-30 03:00 pm 3.64 983 3.8
Report Generated January 31, 2023 08:18 pm